createdAt,value
2023-01-29T17:30:03.262Z,45.12
2023-01-29T17:31:07.065Z,48.34
2023-01-29T17:32:06.065Z,50.92
2023-01-29T17:33:04.607Z,49.63
2023-01-29T17:34:05.073Z,50.11
2023-01-29T17:35:04.794Z,48.98
2023-01-29T17:36:04.662Z,52.37
2023-01-29T17:37:04.347Z,52.53
2023-01-29T17:38:07.444Z,50.76
2023-01-29T17:39:07.369Z,50.27
2023-01-29T17:40:05.395Z,51.24
2023-01-29T17:41:05.656Z,48.98
2023-01-29T17:42:04.570Z,51.24
2023-01-29T17:43:04.486Z,50.27
2023-01-29T17:44:04.969Z,49.15
2023-01-29T17:45:05.049Z,49.15
2023-01-29T17:46:04.407Z,50.92
2023-01-29T17:47:04.625Z,49.15
2023-01-29T17:48:04.718Z,49.47
2023-01-29T17:49:04.678Z,48.18
2023-01-29T17:50:04.765Z,48.98
2023-01-29T17:51:04.687Z,49.15
2023-01-29T17:52:04.265Z,51.24
2023-01-29T17:53:04.371Z,49.15
2023-01-29T17:54:04.555Z,49.63
2023-01-29T17:55:04.394Z,51.40
2023-01-29T17:56:04.978Z,50.60
2023-01-29T17:57:04.585Z,53.17
2023-01-29T17:58:04.403Z,53.98
2023-01-29T17:59:04.588Z,55.11
2023-01-29T18:00:04.556Z,54.14
2023-01-29T18:01:05.757Z,54.14
2023-01-29T18:02:04.487Z,53.82
2023-01-29T18:03:04.196Z,54.46
2023-01-29T18:04:04.116Z,54.46
2023-01-29T18:05:03.986Z,54.95
2023-01-29T18:06:05.297Z,54.95
2023-01-29T18:07:03.867Z,54.30
2023-01-29T18:08:04.580Z,54.46
2023-01-29T18:09:04.371Z,53.98
2023-01-29T18:10:04.371Z,54.62
2023-01-29T18:11:04.490Z,53.98
2023-01-29T18:12:04.495Z,53.50
2023-01-29T18:13:04.481Z,53.82
2023-01-29T18:14:13.595Z,54.30
2023-01-29T18:15:05.194Z,54.79
2023-01-29T18:16:04.179Z,53.50
2023-01-29T18:17:04.030Z,53.33
2023-01-29T18:18:04.179Z,53.98
2023-01-29T18:19:05.167Z,54.14
2023-01-29T18:20:12.040Z,54.14
2023-01-29T18:21:04.328Z,52.85
2023-01-29T18:22:04.667Z,53.82
2023-01-29T18:23:04.439Z,54.62
2023-01-29T18:24:04.375Z,54.14
2023-01-29T18:25:04.131Z,54.62
2023-01-29T18:26:03.709Z,54.30
2023-01-29T18:27:03.767Z,53.66
2023-01-29T18:28:04.738Z,53.17
2023-01-29T18:29:04.066Z,53.98
2023-01-29T18:30:03.792Z,53.82
2023-01-29T18:31:04.158Z,52.53
2023-01-29T18:32:04.202Z,53.50
2023-01-29T18:33:04.622Z,55.11
2023-01-29T18:34:04.111Z,53.66
2023-01-29T18:35:04.379Z,53.01
2023-01-29T18:36:04.126Z,53.98
2023-01-29T18:37:04.390Z,54.95
2023-01-29T18:38:04.233Z,52.85
2023-01-29T18:39:04.173Z,52.85
2023-01-29T18:40:04.253Z,53.50
2023-01-29T18:41:05.079Z,53.17
2023-01-29T18:42:03.977Z,53.66
2023-01-29T18:43:03.763Z,54.14
2023-01-29T18:44:03.978Z,53.82
2023-01-29T18:45:03.690Z,53.66
2023-01-29T18:46:03.822Z,54.46
2023-01-29T18:47:03.688Z,53.17
2023-01-29T18:48:04.074Z,52.85
2023-01-29T18:49:03.930Z,54.30
2023-01-29T18:50:03.903Z,53.66
2023-01-29T18:51:03.797Z,51.88
2023-01-29T18:52:03.729Z,53.50
2023-01-29T18:53:04.060Z,53.17
2023-01-29T18:54:03.816Z,53.17
2023-01-29T18:55:04.183Z,53.50
2023-01-29T18:56:04.192Z,53.66
2023-01-29T18:57:14.376Z,54.30
2023-01-29T18:58:27.841Z,53.66
2023-01-29T18:59:06.410Z,53.33
2023-01-29T19:00:04.100Z,53.66
2023-01-29T19:01:04.337Z,53.50
2023-01-29T19:02:04.009Z,54.14
2023-01-29T19:03:04.132Z,53.01
2023-01-29T19:04:04.151Z,53.01
2023-01-29T19:05:04.134Z,54.46
2023-01-29T19:06:04.433Z,52.53
2023-01-29T19:07:04.260Z,53.98
2023-01-29T19:08:03.745Z,53.33
2023-01-29T19:09:03.954Z,53.33
2023-01-29T19:10:03.766Z,52.05
2023-01-29T19:11:03.896Z,53.17
2023-01-29T19:12:04.204Z,52.53
2023-01-29T19:13:05.876Z,53.50
2023-01-29T19:14:04.861Z,54.14
2023-01-29T19:15:03.879Z,53.82
2023-01-29T19:16:03.710Z,53.98
2023-01-29T19:17:04.036Z,53.66
2023-01-29T19:18:04.140Z,54.14
2023-01-29T19:19:03.999Z,53.50
2023-01-29T19:20:03.910Z,53.82
2023-01-29T19:21:05.169Z,53.01
2023-01-29T19:22:03.921Z,53.66
2023-01-29T19:23:04.124Z,53.82
2023-01-29T19:24:03.753Z,54.14
2023-01-29T19:25:03.883Z,53.01
2023-01-29T19:26:03.830Z,53.50
2023-01-29T19:27:03.928Z,54.79
2023-01-29T19:28:04.178Z,53.33
2023-01-29T19:29:03.905Z,53.66
2023-01-29T19:30:04.904Z,53.01
2023-01-29T19:31:04.796Z,53.66
2023-01-29T19:32:03.845Z,53.01
2023-01-29T19:33:03.911Z,53.82
2023-01-29T19:34:04.253Z,53.17
2023-01-29T19:35:03.973Z,52.85
2023-01-29T19:36:04.077Z,53.01
2023-01-29T19:37:03.875Z,53.66
2023-01-29T19:38:04.751Z,53.50
2023-01-29T19:39:04.111Z,52.85
2023-01-29T19:40:03.951Z,53.66
2023-01-29T19:41:03.984Z,53.01
2023-01-29T19:42:03.862Z,53.50
2023-01-29T19:43:03.878Z,53.66
2023-01-29T19:44:04.843Z,53.66
2023-01-29T19:45:03.855Z,53.50
2023-01-29T19:46:03.926Z,53.17
2023-01-29T19:47:03.770Z,52.85
2023-01-29T19:48:03.968Z,53.01
2023-01-29T19:49:04.926Z,53.50
2023-01-29T19:50:04.093Z,53.01
2023-01-29T19:51:03.994Z,55.11
2023-01-29T19:52:03.606Z,53.98
2023-01-29T19:53:03.701Z,53.50
2023-01-29T19:54:03.782Z,53.17
2023-01-29T19:55:03.965Z,53.50
2023-01-29T19:56:03.350Z,53.33
2023-01-29T19:57:03.548Z,53.66
2023-01-29T19:58:04.131Z,53.66
2023-01-29T19:59:03.588Z,53.33
2023-01-29T20:00:04.999Z,54.30
2023-01-29T20:01:04.755Z,55.27
2023-01-29T20:02:03.736Z,53.66
2023-01-29T20:03:03.713Z,53.82
2023-01-29T20:04:03.754Z,53.66
2023-01-29T20:05:03.810Z,53.50
2023-01-29T20:06:03.908Z,51.72
2023-01-29T20:07:03.668Z,53.82
2023-01-29T20:08:04.296Z,53.01
2023-01-29T20:09:04.303Z,53.01
2023-01-29T20:10:03.674Z,53.01
2023-01-29T20:11:03.867Z,52.69
2023-01-29T20:12:03.663Z,53.17
2023-01-29T20:13:03.863Z,53.50
2023-01-29T20:14:03.713Z,53.98
2023-01-29T20:15:03.684Z,54.46
2023-01-29T20:16:03.589Z,54.62
2023-01-29T20:17:03.827Z,53.50
2023-01-29T20:18:03.804Z,53.98
2023-01-29T20:19:13.701Z,53.17
2023-01-29T20:22:46.915Z,54.30
2023-01-29T20:23:46.626Z,53.82
2023-01-29T20:24:47.852Z,53.98
2023-01-29T20:25:46.451Z,53.01
2023-01-29T20:26:47.827Z,53.33
2023-01-29T20:27:46.552Z,52.85
2023-01-29T20:28:47.536Z,53.66
2023-01-29T20:29:47.503Z,53.01
2023-01-29T20:30:46.995Z,54.62
2023-01-29T20:31:46.528Z,53.50
2023-01-29T20:32:46.834Z,54.46
2023-01-29T20:33:47.519Z,53.82
2023-01-29T20:34:46.661Z,53.33
2023-01-29T20:35:46.675Z,53.17
2023-01-29T20:36:46.679Z,53.50
2023-01-29T20:37:47.278Z,53.66
2023-01-29T20:38:46.546Z,52.85
2023-01-29T20:39:46.664Z,52.85
2023-01-29T20:40:46.471Z,53.01
2023-01-29T20:41:46.543Z,53.17
2023-01-29T20:42:46.614Z,52.69
2023-01-29T20:43:47.291Z,53.82
2023-01-29T20:44:46.641Z,52.85
2023-01-29T20:45:46.587Z,53.17
2023-01-29T20:46:46.503Z,53.17
2023-01-29T20:47:46.560Z,52.85
2023-01-29T20:48:46.676Z,52.37
2023-01-29T20:49:46.598Z,52.53
2023-01-29T20:50:46.612Z,53.01
2023-01-29T20:51:46.534Z,53.17
2023-01-29T20:52:46.508Z,53.01
2023-01-29T20:53:46.550Z,53.01
2023-01-29T20:54:46.547Z,53.17
2023-01-29T20:55:46.567Z,51.88
2023-01-29T20:56:46.996Z,53.50
2023-01-29T20:57:46.464Z,52.37
2023-01-29T20:58:47.468Z,53.33
2023-01-29T20:59:46.804Z,53.01
2023-01-29T21:00:46.525Z,52.69
2023-01-29T21:01:46.426Z,53.01
2023-01-29T21:02:46.358Z,53.17
2023-01-29T21:03:46.292Z,52.53
2023-01-29T21:04:46.106Z,52.53
2023-01-29T21:05:46.358Z,51.72
2023-01-29T21:06:46.069Z,52.69
2023-01-29T21:07:46.127Z,51.72
2023-01-29T21:08:46.453Z,52.53
2023-01-29T21:09:46.423Z,53.50
2023-01-29T21:10:45.839Z,51.88
2023-01-29T21:11:46.239Z,52.21
2023-01-29T21:12:45.817Z,52.85
2023-01-29T21:13:46.734Z,52.05
2023-01-29T21:14:45.926Z,52.69
2023-01-29T21:15:46.605Z,53.66
2023-01-29T21:16:46.406Z,53.17
2023-01-29T21:17:46.263Z,53.01
2023-01-29T21:18:46.410Z,53.33
2023-01-29T21:19:46.556Z,52.37
2023-01-29T21:20:45.789Z,52.85
2023-01-29T21:21:46.162Z,53.01
2023-01-29T21:22:46.823Z,54.14
2023-01-29T21:23:46.060Z,52.21
2023-01-29T21:24:46.339Z,52.53
2023-01-29T21:25:46.808Z,52.69
2023-01-29T21:26:46.150Z,53.82
2023-01-29T21:27:45.753Z,52.69
2023-01-29T21:28:46.118Z,52.53
2023-01-29T21:29:46.302Z,52.37
2023-01-29T21:30:45.652Z,53.17
2023-01-29T21:31:46.035Z,53.17
2023-01-29T21:32:45.785Z,53.50
2023-01-29T21:34:30.836Z,52.85
2023-01-29T21:34:45.584Z,54.46
2023-01-29T21:38:32.582Z,52.69
2023-01-29T21:39:32.744Z,52.85
2023-01-29T21:40:32.423Z,52.37
2023-01-29T21:41:32.388Z,52.85
2023-01-29T21:42:32.687Z,52.21
2023-01-29T21:43:32.295Z,53.17
2023-01-29T21:44:33.552Z,53.17
2023-01-29T21:45:34.193Z,52.85
2023-01-29T21:46:32.647Z,52.37
2023-01-29T21:47:32.710Z,51.88
2023-01-29T21:48:32.394Z,52.53
2023-01-29T21:49:32.409Z,52.53
2023-01-29T21:50:32.477Z,51.72
2023-01-29T21:51:32.321Z,52.37
2023-01-29T21:52:32.757Z,53.01
2023-01-29T21:53:32.270Z,53.01
2023-01-29T21:54:32.764Z,53.50
2023-01-29T21:55:32.358Z,52.69
2023-01-29T21:56:32.192Z,52.37
2023-01-29T21:57:32.285Z,52.37
2023-01-29T21:58:32.375Z,53.01
2023-01-29T21:59:50.601Z,52.53
2023-01-29T22:00:33.308Z,53.82
2023-01-29T22:01:38.142Z,53.01
2023-01-29T22:02:34.208Z,52.05
2023-01-29T22:03:32.372Z,52.85
2023-01-29T22:04:32.205Z,52.37
2023-01-29T22:05:40.829Z,52.21
2023-01-29T22:06:33.222Z,51.24
2023-01-29T22:07:32.128Z,52.85
2023-01-29T22:08:32.947Z,52.37
2023-01-29T22:09:32.264Z,52.21
2023-01-29T22:10:32.931Z,52.53
2023-01-29T22:11:32.969Z,52.37
2023-01-29T22:12:31.999Z,51.08
2023-01-29T22:13:32.359Z,51.24
2023-01-29T22:14:32.148Z,52.05
2023-01-29T22:15:32.007Z,52.53
2023-01-29T22:16:31.986Z,52.21
2023-01-29T22:17:32.156Z,52.05
2023-01-29T22:18:32.412Z,52.05
2023-01-29T22:19:32.419Z,52.05
2023-01-29T22:20:32.103Z,52.85
2023-01-29T22:21:33.882Z,52.37
2023-01-29T22:22:32.496Z,52.85
2023-01-29T22:23:32.083Z,52.53
2023-01-29T22:24:32.015Z,52.85
2023-01-29T22:25:31.989Z,52.53
2023-01-29T22:26:32.143Z,52.85
2023-01-29T22:27:32.026Z,52.21
2023-01-29T22:28:31.929Z,52.53
2023-01-29T22:29:31.984Z,53.01
2023-01-29T22:30:32.037Z,52.37
2023-01-29T22:31:32.112Z,53.33
2023-01-29T22:32:32.074Z,52.53
2023-01-29T22:33:32.108Z,53.50
2023-01-29T22:34:32.561Z,53.66
2023-01-29T22:35:32.057Z,52.53
2023-01-29T22:36:32.289Z,52.85
2023-01-29T22:37:31.928Z,52.69
2023-01-29T22:38:32.133Z,53.66
2023-01-29T22:39:32.574Z,52.85
2023-01-29T22:40:31.948Z,52.85
2023-01-29T22:41:32.120Z,52.53
2023-01-29T22:42:31.938Z,53.33
2023-01-29T22:43:32.362Z,52.69
2023-01-29T22:44:31.942Z,52.53
2023-01-29T22:45:31.910Z,52.37
2023-01-29T22:46:31.922Z,52.05
2023-01-29T22:47:32.092Z,52.21
2023-01-29T22:48:32.676Z,53.50
2023-01-29T22:49:32.482Z,53.01
2023-01-29T22:50:31.822Z,52.21
2023-01-29T22:51:31.787Z,52.53
2023-01-29T22:52:31.814Z,52.53
2023-01-29T22:53:31.923Z,52.37
2023-01-29T22:54:31.772Z,52.69
2023-01-29T22:55:31.791Z,51.72
2023-01-29T22:56:31.817Z,52.53
2023-01-29T22:57:31.927Z,52.69
2023-01-29T22:58:31.840Z,52.85
2023-01-29T22:59:32.430Z,52.21
2023-01-29T23:00:31.979Z,53.01
2023-01-29T23:01:31.759Z,52.21
2023-01-29T23:02:31.834Z,52.53
2023-01-29T23:03:31.998Z,51.24
2023-01-29T23:04:32.383Z,52.05
2023-01-29T23:05:31.656Z,51.40
2023-01-29T23:06:31.729Z,52.21
2023-01-29T23:07:32.524Z,52.37
2023-01-29T23:08:31.739Z,52.37
2023-01-29T23:09:31.694Z,53.01
2023-01-29T23:10:31.609Z,53.50
2023-01-29T23:11:31.574Z,55.43
2023-01-29T23:12:31.620Z,53.33
2023-01-29T23:13:31.609Z,52.69
2023-01-29T23:14:31.682Z,52.53
2023-01-29T23:15:31.629Z,51.72
2023-01-29T23:16:31.634Z,52.69
2023-01-29T23:17:31.552Z,53.01
2023-01-29T23:18:31.544Z,52.69
2023-01-29T23:19:31.571Z,52.53
2023-01-29T23:20:31.771Z,52.53
2023-01-29T23:21:31.776Z,53.17
2023-01-29T23:22:31.485Z,53.98
2023-01-29T23:23:32.057Z,53.17
2023-01-29T23:24:31.611Z,53.82
2023-01-29T23:25:31.677Z,53.66
2023-01-29T23:26:31.618Z,52.53
2023-01-29T23:27:31.607Z,52.21
2023-01-29T23:28:31.528Z,53.17
2023-01-29T23:29:31.648Z,53.17
2023-01-29T23:30:31.551Z,53.17
2023-01-29T23:31:31.657Z,53.17
2023-01-29T23:32:31.526Z,53.50
2023-01-29T23:33:31.621Z,53.50
2023-01-29T23:34:32.423Z,52.69
2023-01-29T23:35:31.814Z,53.01
2023-01-29T23:36:31.558Z,53.33
2023-01-29T23:37:31.509Z,53.66
2023-01-29T23:38:32.492Z,53.98
2023-01-29T23:39:31.524Z,54.30
2023-01-29T23:40:31.536Z,53.01
2023-01-29T23:41:31.855Z,52.05
2023-01-29T23:42:31.538Z,53.17
2023-01-29T23:43:31.658Z,52.85
2023-01-29T23:44:31.492Z,53.50
2023-01-29T23:45:31.450Z,52.85
2023-01-29T23:46:31.563Z,53.66
2023-01-29T23:47:31.651Z,53.98
2023-01-29T23:48:32.415Z,53.17
2023-01-29T23:49:31.550Z,52.37
2023-01-29T23:50:31.645Z,53.82
2023-01-29T23:51:31.558Z,53.50
2023-01-29T23:52:31.891Z,53.98
2023-01-29T23:53:31.467Z,53.66
2023-01-29T23:54:31.454Z,52.53
2023-01-29T23:55:32.365Z,53.82
2023-01-29T23:56:31.374Z,54.14
2023-01-29T23:57:31.539Z,54.62
2023-01-29T23:58:31.406Z,54.46
2023-01-29T23:59:31.367Z,53.50
